createdAt,value
2022-12-10T17:12:56.975Z,18.50
2022-12-10T17:15:27.422Z,14.60
2022-12-10T17:17:57.224Z,13.00
2022-12-10T17:20:27.675Z,16.70
2022-12-10T17:22:57.457Z,17.70
2022-12-10T17:25:26.942Z,17.80
2022-12-10T17:27:56.944Z,17.30
2022-12-10T17:47:29.393Z,132.10
2022-12-10T17:49:59.609Z,111.70
2022-12-10T17:52:29.387Z,108.00
2022-12-10T17:54:58.829Z,116.70
2022-12-10T18:08:25.614Z,67.90
2022-12-10T18:10:56.039Z,66.90
2022-12-10T18:13:25.985Z,66.00
2022-12-10T18:15:56.366Z,62.70
2022-12-10T18:18:26.186Z,59.90
2022-12-10T18:20:55.800Z,63.20
2022-12-10T18:23:26.125Z,65.90
2022-12-10T18:29:41.636Z,49.20
2022-12-10T18:32:12.913Z,49.80
2022-12-10T18:34:41.282Z,51.20
2022-12-10T18:37:11.739Z,50.70
2022-12-10T18:39:40.105Z,44.60
2022-12-10T18:42:08.268Z,48.80
2022-12-10T18:44:36.401Z,43.00
2022-12-10T18:47:06.436Z,47.90
2022-12-10T18:49:34.535Z,43.30
2022-12-10T18:52:02.617Z,43.00
2022-12-10T18:54:30.876Z,38.80
2022-12-10T18:57:31.647Z,39.50
2022-12-10T18:59:47.088Z,39.10
2022-12-10T19:02:15.375Z,38.20
2022-12-10T19:04:43.455Z,39.50
2022-12-10T19:07:13.390Z,35.90
2022-12-10T19:09:42.758Z,40.80
2022-12-10T19:12:11.234Z,33.50
2022-12-10T19:14:39.513Z,41.30
2022-12-10T19:17:11.478Z,37.10
2022-12-10T19:19:39.753Z,39.50
2022-12-10T19:22:07.865Z,30.90
2022-12-10T19:24:36.109Z,37.90
2022-12-10T19:27:04.641Z,30.90
2022-12-10T19:29:32.860Z,32.50
2022-12-10T19:32:01.238Z,31.20
2022-12-10T19:34:29.723Z,25.40
2022-12-10T19:36:57.798Z,29.40
2022-12-10T19:39:26.947Z,26.70
2022-12-10T19:41:58.615Z,26.00
2022-12-10T19:44:26.715Z,26.60
2022-12-10T19:46:54.785Z,23.80
2022-12-10T19:49:22.967Z,24.90
2022-12-10T19:51:51.346Z,21.20
2022-12-10T19:54:19.601Z,27.60
2022-12-10T19:56:47.903Z,23.70
2022-12-10T19:59:19.757Z,20.30
2022-12-10T20:01:48.574Z,18.60
2022-12-10T20:04:18.796Z,22.30
2022-12-10T20:06:49.129Z,19.80
2022-12-10T20:09:29.807Z,19.40
2022-12-10T20:11:58.091Z,18.40
2022-12-10T20:14:26.616Z,17.20
2022-12-10T20:16:54.867Z,18.60
2022-12-10T20:19:25.024Z,20.60
2022-12-10T20:21:53.369Z,17.60
2022-12-10T20:24:22.461Z,17.40
2022-12-10T20:26:51.097Z,14.90
2022-12-10T20:29:25.956Z,15.20
2022-12-10T20:31:57.055Z,18.30
2022-12-10T20:34:26.520Z,21.20
2022-12-10T20:36:54.725Z,19.90
2022-12-10T20:39:33.240Z,16.80
2022-12-10T20:42:02.371Z,19.70
2022-12-10T20:44:30.718Z,15.20
2022-12-10T20:46:58.787Z,17.20
2022-12-10T20:49:28.172Z,14.20
2022-12-10T20:51:56.413Z,18.20
2022-12-10T20:54:24.746Z,16.20
2022-12-10T20:56:59.274Z,14.50
2022-12-10T20:59:31.440Z,16.40
2022-12-10T21:01:59.533Z,12.30
2022-12-10T21:04:28.616Z,11.90
2022-12-10T21:06:56.883Z,14.70
2022-12-10T21:09:25.106Z,15.60
2022-12-10T21:11:53.329Z,17.20
2022-12-10T21:14:54.284Z,14.10
2022-12-10T21:17:12.824Z,12.60
2022-12-10T21:19:42.497Z,18.20
2022-12-10T21:22:13.776Z,11.80
2022-12-10T21:24:41.914Z,13.30
2022-12-10T21:27:10.644Z,12.50
2022-12-10T21:29:39.016Z,14.60
2022-12-10T21:32:07.393Z,15.90
2022-12-10T21:34:35.566Z,13.70
2022-12-10T21:37:03.744Z,10.50
2022-12-10T21:39:31.917Z,15.70
2022-12-10T21:42:18.657Z,13.30
2022-12-10T21:44:46.905Z,12.00
2022-12-10T21:47:15.076Z,13.90
2022-12-10T21:49:43.247Z,13.60
2022-12-10T21:52:12.552Z,14.20
2022-12-10T21:54:40.820Z,14.80
2022-12-10T21:57:09.001Z,15.90
2022-12-10T21:59:37.280Z,14.60
2022-12-10T22:02:05.380Z,14.30
2022-12-10T22:04:33.968Z,12.60
2022-12-10T22:07:02.107Z,15.60
2022-12-10T22:09:30.119Z,14.60
2022-12-10T22:11:58.352Z,17.70
2022-12-10T22:14:26.498Z,13.00
2022-12-10T22:16:54.700Z,15.10
2022-12-10T22:19:23.077Z,15.80
2022-12-10T22:21:51.192Z,17.60
2022-12-10T22:24:19.223Z,18.40
2022-12-10T22:26:47.397Z,18.80
2022-12-10T22:29:15.779Z,18.60
2022-12-10T22:31:44.307Z,17.40
2022-12-10T22:34:12.535Z,22.40
2022-12-10T22:36:41.122Z,19.70
2022-12-10T22:39:10.320Z,22.30
2022-12-10T22:41:38.593Z,20.50
2022-12-10T22:44:07.796Z,22.40
2022-12-10T22:46:36.009Z,18.70
2022-12-10T22:49:04.215Z,20.80
2022-12-10T22:51:32.316Z,18.40
2022-12-10T22:54:01.309Z,16.10
2022-12-10T22:56:30.679Z,17.00
2022-12-10T22:58:59.127Z,20.80
2022-12-10T23:01:28.101Z,16.00
2022-12-10T23:03:56.976Z,18.90
2022-12-10T23:06:26.486Z,18.50
2022-12-10T23:08:54.593Z,15.50
2022-12-10T23:11:22.829Z,15.80
2022-12-10T23:13:51.210Z,17.30
2022-12-10T23:16:19.957Z,16.90
2022-12-10T23:18:51.241Z,15.50
2022-12-10T23:21:26.686Z,13.90
2022-12-10T23:23:55.268Z,16.00
2022-12-10T23:26:23.444Z,14.60
2022-12-10T23:28:51.508Z,13.80
2022-12-10T23:31:20.067Z,15.50
2022-12-10T23:33:48.377Z,15.20
2022-12-10T23:36:16.652Z,14.30
2022-12-10T23:38:44.804Z,13.20
2022-12-10T23:41:13.104Z,13.60
2022-12-10T23:43:41.584Z,12.70
2022-12-10T23:46:09.930Z,13.20
2022-12-10T23:48:38.375Z,11.00
2022-12-10T23:51:07.203Z,14.80
2022-12-10T23:53:35.406Z,10.70
2022-12-10T23:56:14.132Z,11.20
2022-12-10T23:58:43.026Z,12.00
